createdAt,value
2018-06-27T04:00:56.978Z,15.90
2018-06-27T04:01:56.382Z,20.60
2018-06-27T04:03:49.071Z,20.50
2018-06-27T04:04:48.945Z,19.90
2018-06-27T04:06:42.270Z,20.40
2018-06-27T04:07:41.509Z,19.80
2018-06-27T04:09:34.691Z,20.70
2018-06-27T04:10:34.565Z,19.80
2018-06-27T04:12:27.248Z,19.40
2018-06-27T04:13:27.268Z,20.20
2018-06-27T04:15:19.825Z,20.80
2018-06-27T04:16:19.704Z,21.80
2018-06-27T04:18:12.374Z,22.20
2018-06-27T04:19:12.274Z,23.20
2018-06-27T04:21:04.965Z,21.40
2018-06-27T04:22:04.839Z,21.90
2018-06-27T04:23:57.523Z,21.50
2018-06-27T04:24:57.419Z,21.80
2018-06-27T04:26:50.118Z,22.10
2018-06-27T04:27:49.991Z,21.30
2018-06-27T04:29:42.692Z,22.10
2018-06-27T04:30:42.557Z,23.30
2018-06-27T04:32:35.736Z,22.90
2018-06-27T04:33:35.621Z,22.90
2018-06-27T04:35:28.319Z,22.60
2018-06-27T04:36:28.187Z,23.90
2018-06-27T04:38:20.869Z,22.30
2018-06-27T04:39:20.763Z,23.40
2018-06-27T04:41:13.609Z,23.30
2018-06-27T04:42:13.333Z,23.60
2018-06-27T04:44:06.011Z,22.50
2018-06-27T04:45:05.901Z,22.90
2018-06-27T04:46:58.588Z,21.50
2018-06-27T04:47:58.465Z,22.20
2018-06-27T04:49:51.143Z,22.30
2018-06-27T04:50:51.040Z,22.90
2018-06-27T04:52:43.731Z,23.70
2018-06-27T04:53:43.609Z,22.40
2018-06-27T04:55:36.285Z,23.10
2018-06-27T04:56:36.174Z,23.20
2018-06-27T04:58:28.871Z,22.70
2018-06-27T04:59:28.748Z,22.30
2018-06-27T05:01:21.421Z,22.50
2018-06-27T05:02:21.321Z,23.50
2018-06-27T05:04:14.015Z,23.60
2018-06-27T05:05:13.885Z,23.90
2018-06-27T05:07:07.049Z,24.40
2018-06-27T05:08:06.951Z,24.20
2018-06-27T05:09:59.640Z,23.50
2018-06-27T05:10:59.517Z,25.00
2018-06-27T05:12:52.386Z,25.10
2018-06-27T05:13:52.254Z,24.00
2018-06-27T05:15:45.083Z,25.00
2018-06-27T05:16:44.821Z,24.50
2018-06-27T05:18:37.510Z,25.10
2018-06-27T05:19:37.389Z,24.20
2018-06-27T05:21:30.066Z,24.70
2018-06-27T05:22:29.965Z,24.40
2018-06-27T05:24:22.648Z,24.10
2018-06-27T05:25:22.529Z,24.30
2018-06-27T05:27:15.227Z,24.30
2018-06-27T05:28:15.097Z,25.40
2018-06-27T05:30:07.788Z,24.80
2018-06-27T05:31:07.661Z,23.90
2018-06-27T05:33:00.339Z,24.60
2018-06-27T05:34:00.285Z,24.90
2018-06-27T05:35:52.927Z,24.30
2018-06-27T05:36:52.804Z,23.40
2018-06-27T05:38:45.497Z,25.50
2018-06-27T05:39:45.371Z,24.30
2018-06-27T05:41:38.049Z,23.40
2018-06-27T05:42:37.946Z,22.50
2018-06-27T05:44:30.643Z,22.90
2018-06-27T05:45:30.521Z,23.10
2018-06-27T05:47:23.195Z,23.20
2018-06-27T05:48:23.085Z,23.70
2018-06-27T05:50:15.780Z,23.80
2018-06-27T05:51:15.660Z,23.60
2018-06-27T05:53:08.346Z,23.40
2018-06-27T05:54:08.238Z,23.90
2018-06-27T05:56:00.928Z,23.20
2018-06-27T05:57:00.813Z,22.10
2018-06-27T05:58:53.490Z,23.10
2018-06-27T05:59:53.387Z,23.30
2018-06-27T06:01:46.237Z,22.60
2018-06-27T06:02:45.961Z,23.00
2018-06-27T06:04:38.642Z,22.70
2018-06-27T06:05:38.542Z,23.90
2018-06-27T06:07:31.242Z,22.70
2018-06-27T06:08:31.114Z,23.10
2018-06-27T06:10:23.791Z,22.10
2018-06-27T06:11:23.692Z,22.40
2018-06-27T06:13:16.386Z,22.30
2018-06-27T06:14:16.268Z,20.10
2018-06-27T06:16:08.976Z,20.30
2018-06-27T06:17:08.850Z,20.70
2018-06-27T06:19:01.538Z,17.80
2018-06-27T06:20:01.435Z,16.00
2018-06-27T06:21:54.142Z,17.30
2018-06-27T06:22:54.023Z,14.70
2018-06-27T06:24:46.714Z,14.50
2018-06-27T06:25:46.616Z,14.10
2018-06-27T06:27:39.397Z,13.00
2018-06-27T06:28:39.219Z,13.60
2018-06-27T06:30:32.064Z,14.20
2018-06-27T06:31:31.816Z,13.30
2018-06-27T06:33:24.538Z,14.80
2018-06-27T06:34:24.428Z,14.70
2018-06-27T06:36:17.124Z,14.30
2018-06-27T06:37:17.032Z,14.40
2018-06-27T06:39:09.754Z,13.50
2018-06-27T06:40:09.641Z,14.40
2018-06-27T06:42:02.351Z,13.90
2018-06-27T06:43:02.250Z,13.70
2018-06-27T06:44:54.975Z,14.20
2018-06-27T06:45:54.869Z,13.50
2018-06-27T06:47:47.573Z,13.10
2018-06-27T06:48:47.483Z,13.80
2018-06-27T06:50:40.202Z,13.00
2018-06-27T06:51:40.093Z,13.40
2018-06-27T06:53:32.828Z,13.70
2018-06-27T06:54:32.712Z,12.60
2018-06-27T06:56:25.417Z,13.00
2018-06-27T06:57:25.329Z,12.60
2018-06-27T06:59:18.060Z,13.30
2018-06-27T07:00:17.949Z,13.30
2018-06-27T07:02:10.668Z,13.60
2018-06-27T07:03:10.568Z,13.20
2018-06-27T07:05:03.386Z,12.90
2018-06-27T07:06:03.191Z,13.10
2018-06-27T07:07:55.902Z,12.10
2018-06-27T07:08:55.810Z,13.30
2018-06-27T07:10:48.548Z,12.30
2018-06-27T07:11:48.438Z,12.50
2018-06-27T07:13:41.145Z,12.40
2018-06-27T07:14:41.061Z,12.90
2018-06-27T07:16:33.787Z,12.20
2018-06-27T07:17:33.687Z,12.70
2018-06-27T07:19:26.393Z,12.70
2018-06-27T07:20:26.305Z,12.30
2018-06-27T07:22:19.039Z,12.20
2018-06-27T07:23:18.933Z,11.90
2018-06-27T07:25:11.648Z,12.50
2018-06-27T07:26:11.556Z,12.70
2018-06-27T07:28:04.286Z,12.20
2018-06-27T07:29:04.183Z,11.80
2018-06-27T07:30:57.390Z,11.60
2018-06-27T07:31:57.307Z,13.10
2018-06-27T07:33:50.042Z,11.40
2018-06-27T07:34:49.931Z,11.40
2018-06-27T07:36:42.647Z,11.80
2018-06-27T07:37:42.562Z,11.20
2018-06-27T07:39:35.295Z,11.30
2018-06-27T07:40:35.188Z,11.40
2018-06-27T07:42:27.935Z,10.90
2018-06-27T07:43:27.819Z,10.60
2018-06-27T07:45:20.532Z,11.10
2018-06-27T07:46:20.439Z,11.30
2018-06-27T07:48:13.679Z,12.90
2018-06-27T07:49:13.578Z,12.20
2018-06-27T07:51:06.292Z,12.60
2018-06-27T07:52:06.214Z,12.90
2018-06-27T07:53:58.940Z,13.10
2018-06-27T07:54:58.838Z,12.30
2018-06-27T07:56:51.557Z,12.60
2018-06-27T07:57:51.468Z,12.70
2018-06-27T07:59:44.203Z,12.00
2018-06-27T08:00:44.102Z,11.80
2018-06-27T08:02:36.821Z,11.80
2018-06-27T08:03:36.738Z,11.80
2018-06-27T08:05:29.474Z,11.50
2018-06-27T08:06:29.370Z,11.60
2018-06-27T08:08:22.092Z,12.00
2018-06-27T08:09:21.998Z,12.50
2018-06-27T08:11:14.876Z,11.20
2018-06-27T08:12:14.688Z,11.30
2018-06-27T08:14:07.830Z,11.80
2018-06-27T08:15:07.739Z,11.70
2018-06-27T08:17:00.470Z,12.30
2018-06-27T08:18:00.465Z,11.90
2018-06-27T08:19:53.070Z,11.80
2018-06-27T08:20:52.982Z,10.80
2018-06-27T08:22:45.707Z,12.10
2018-06-27T08:23:45.605Z,12.40
2018-06-27T08:25:38.309Z,11.80
2018-06-27T08:26:38.226Z,11.90
2018-06-27T08:28:30.997Z,12.10
2018-06-27T08:29:30.851Z,11.30
2018-06-27T08:31:23.590Z,11.40
2018-06-27T08:32:23.512Z,11.90
2018-06-27T08:34:16.192Z,11.40
2018-06-27T08:35:16.098Z,10.70
2018-06-27T08:37:08.824Z,11.50
2018-06-27T08:38:08.723Z,11.30
2018-06-27T08:40:01.436Z,11.10
2018-06-27T08:41:01.348Z,10.60
2018-06-27T08:42:54.079Z,9.00
2018-06-27T08:43:53.971Z,10.50
2018-06-27T08:45:46.702Z,9.70
2018-06-27T08:46:46.594Z,10.20
2018-06-27T08:48:39.329Z,10.00
2018-06-27T08:49:39.224Z,11.40
2018-06-27T08:51:31.939Z,10.10
2018-06-27T08:52:31.855Z,10.50
2018-06-27T08:54:24.582Z,10.80
2018-06-27T08:55:24.473Z,10.20
2018-06-27T08:57:17.188Z,9.60
2018-06-27T08:58:17.099Z,10.00
2018-06-27T09:00:09.829Z,9.90
2018-06-27T09:01:09.726Z,10.90
2018-06-27T09:03:02.423Z,10.70
2018-06-27T09:04:02.330Z,11.70
2018-06-27T09:05:55.051Z,9.90
2018-06-27T09:06:54.938Z,10.20
2018-06-27T09:08:47.640Z,11.30
2018-06-27T09:09:47.541Z,9.80
2018-06-27T09:11:40.265Z,10.10
2018-06-27T09:12:40.153Z,9.90
2018-06-27T09:14:32.874Z,8.60
2018-06-27T09:15:32.756Z,8.80
2018-06-27T09:17:25.462Z,8.50
2018-06-27T09:18:25.366Z,8.80
2018-06-27T09:20:18.073Z,9.40
2018-06-27T09:21:17.960Z,9.60
2018-06-27T09:23:10.657Z,10.50
2018-06-27T09:24:10.562Z,9.90
2018-06-27T09:26:03.770Z,10.60
2018-06-27T09:27:03.656Z,10.60
2018-06-27T09:28:56.343Z,9.30
2018-06-27T09:29:56.251Z,9.40
2018-06-27T09:31:48.962Z,9.40
2018-06-27T09:32:48.846Z,9.70
2018-06-27T09:34:41.537Z,9.50
2018-06-27T09:35:41.445Z,10.00
2018-06-27T09:37:34.151Z,10.90
2018-06-27T09:38:34.038Z,10.40
2018-06-27T09:40:26.733Z,10.30
2018-06-27T09:41:26.638Z,9.30
2018-06-27T09:43:19.341Z,11.00
2018-06-27T09:44:19.230Z,10.10
2018-06-27T09:46:11.922Z,10.30
2018-06-27T09:47:11.827Z,9.70
2018-06-27T09:49:04.539Z,9.20
2018-06-27T09:50:04.426Z,9.40
2018-06-27T09:51:57.117Z,9.50
2018-06-27T09:52:57.015Z,9.70
2018-06-27T09:54:49.725Z,9.90
2018-06-27T09:55:49.614Z,9.80
2018-06-27T09:57:42.330Z,11.20
2018-06-27T09:58:42.214Z,10.40
2018-06-27T10:00:34.905Z,10.00
2018-06-27T10:01:34.810Z,9.10
2018-06-27T10:03:27.512Z,9.70
2018-06-27T10:04:27.395Z,9.10
2018-06-27T10:06:20.085Z,8.70
2018-06-27T10:07:19.991Z,9.50
2018-06-27T10:09:12.697Z,9.90
2018-06-27T10:10:12.584Z,9.70
2018-06-27T10:12:05.274Z,8.60
2018-06-27T10:13:05.176Z,7.90
2018-06-27T10:14:58.383Z,8.60
2018-06-27T10:15:58.260Z,8.60
2018-06-27T10:17:50.954Z,7.80
2018-06-27T10:18:50.867Z,7.40
2018-06-27T10:20:45.216Z,8.00
2018-06-27T10:21:44.940Z,7.70
2018-06-27T10:23:37.632Z,8.40
2018-06-27T10:24:37.537Z,8.80
2018-06-27T10:26:30.250Z,7.50
2018-06-27T10:27:30.130Z,7.80
2018-06-27T10:29:22.835Z,6.80
2018-06-27T10:30:22.718Z,7.50
2018-06-27T10:32:15.409Z,6.80
2018-06-27T10:33:15.310Z,6.40
2018-06-27T10:35:08.026Z,7.10
2018-06-27T10:36:07.901Z,6.50
2018-06-27T10:38:00.590Z,8.60
2018-06-27T10:39:00.496Z,7.80
2018-06-27T10:40:53.205Z,6.90
2018-06-27T10:41:53.092Z,7.20
2018-06-27T10:43:45.779Z,7.80
2018-06-27T10:44:45.686Z,6.60
2018-06-27T10:46:38.392Z,5.90
2018-06-27T10:47:38.272Z,5.80
2018-06-27T10:49:30.965Z,6.30
2018-06-27T10:50:30.877Z,6.40
2018-06-27T10:52:24.072Z,6.30
2018-06-27T10:53:23.952Z,5.60
2018-06-27T10:55:16.652Z,6.50
2018-06-27T10:56:16.546Z,6.30
2018-06-27T10:58:09.258Z,6.00
2018-06-27T10:59:09.146Z,5.90
2018-06-27T11:01:01.851Z,5.00
2018-06-27T11:02:01.742Z,4.70
2018-06-27T11:03:54.460Z,4.80
2018-06-27T11:04:54.341Z,4.40
2018-06-27T11:06:47.057Z,5.20
2018-06-27T11:07:46.941Z,5.00
2018-06-27T11:09:39.631Z,5.00
2018-06-27T11:10:39.535Z,5.20
2018-06-27T11:12:32.243Z,4.20
2018-06-27T11:13:32.125Z,4.40
2018-06-27T11:15:24.818Z,3.40
2018-06-27T11:16:24.721Z,3.40
2018-06-27T11:18:17.435Z,3.80
2018-06-27T11:19:17.321Z,3.50
2018-06-27T11:21:10.066Z,3.40
2018-06-27T11:22:09.963Z,3.10
2018-06-27T11:24:02.676Z,3.60
2018-06-27T11:25:02.560Z,3.40
2018-06-27T11:26:55.346Z,3.80
2018-06-27T11:27:55.154Z,3.40
2018-06-27T11:29:47.849Z,3.60
2018-06-27T11:30:47.754Z,3.60
2018-06-27T11:32:40.473Z,3.30
2018-06-27T11:33:40.353Z,3.30
2018-06-27T11:35:33.043Z,3.20
2018-06-27T11:36:32.940Z,3.30
2018-06-27T11:38:25.730Z,3.40
2018-06-27T11:39:25.545Z,3.20
2018-06-27T11:41:18.233Z,3.00
2018-06-27T11:42:18.139Z,3.30
2018-06-27T11:44:10.851Z,2.90
2018-06-27T11:45:10.734Z,3.10
2018-06-27T11:47:03.429Z,3.10
2018-06-27T11:48:03.329Z,3.10
2018-06-27T11:49:56.048Z,3.40
2018-06-27T11:50:55.936Z,3.40
2018-06-27T11:52:48.619Z,2.80
2018-06-27T11:53:48.522Z,3.20
2018-06-27T11:55:41.234Z,3.40
2018-06-27T11:56:41.124Z,3.10
2018-06-27T11:58:33.813Z,3.50
2018-06-27T11:59:33.710Z,3.70
2018-06-27T12:01:26.427Z,3.20
2018-06-27T12:02:26.305Z,3.20
2018-06-27T12:04:19.025Z,3.10
2018-06-27T12:05:18.903Z,3.10
2018-06-27T12:07:12.593Z,3.10
2018-06-27T12:08:12.501Z,2.90
2018-06-27T12:10:05.213Z,2.80
2018-06-27T12:11:05.104Z,2.80
2018-06-27T12:12:57.792Z,2.80
2018-06-27T12:13:57.761Z,2.90
2018-06-27T12:15:50.411Z,2.80
2018-06-27T12:16:50.292Z,3.00
2018-06-27T12:18:42.989Z,3.00
2018-06-27T12:19:42.893Z,3.40
2018-06-27T12:21:35.601Z,2.90
2018-06-27T12:22:35.487Z,2.60
2018-06-27T12:24:28.334Z,2.80
2018-06-27T12:25:28.086Z,2.70
2018-06-27T12:27:20.802Z,2.90
2018-06-27T12:28:20.678Z,2.70
2018-06-27T12:30:13.366Z,2.70
2018-06-27T12:31:13.272Z,2.70
2018-06-27T12:33:06.131Z,3.10
2018-06-27T12:34:05.895Z,2.80
2018-06-27T12:35:58.731Z,3.10
2018-06-27T12:36:58.483Z,2.80
2018-06-27T12:38:51.200Z,2.80
2018-06-27T12:39:51.061Z,2.90
2018-06-27T12:41:43.779Z,3.40
2018-06-27T12:42:43.663Z,3.00
2018-06-27T12:44:36.354Z,2.90
2018-06-27T12:45:36.256Z,2.90
2018-06-27T12:47:28.975Z,2.90
2018-06-27T12:48:28.854Z,3.20
2018-06-27T12:50:21.554Z,3.10
2018-06-27T12:51:21.463Z,3.30
2018-06-27T12:53:14.174Z,3.30
2018-06-27T12:54:14.058Z,3.20
2018-06-27T12:56:06.766Z,3.00
2018-06-27T12:57:06.650Z,2.90
2018-06-27T12:58:59.348Z,2.90
2018-06-27T12:59:59.256Z,3.10
2018-06-27T13:01:51.965Z,3.00
2018-06-27T13:02:51.852Z,3.00
2018-06-27T13:04:44.543Z,3.10
2018-06-27T13:05:44.519Z,2.90
2018-06-27T13:07:37.173Z,2.90
2018-06-27T13:08:37.042Z,3.00
2018-06-27T13:10:30.226Z,3.00
2018-06-27T13:11:30.140Z,2.80
2018-06-27T13:13:22.879Z,3.40
2018-06-27T13:14:22.753Z,2.50
2018-06-27T13:16:15.453Z,3.10
2018-06-27T13:17:15.332Z,2.80
2018-06-27T13:19:08.078Z,3.00
2018-06-27T13:20:07.975Z,2.90
2018-06-27T13:22:00.646Z,3.10
2018-06-27T13:23:00.536Z,2.70
2018-06-27T13:24:53.225Z,3.20
2018-06-27T13:25:53.125Z,2.70
2018-06-27T13:27:45.877Z,2.90
2018-06-27T13:28:45.727Z,2.90
2018-06-27T13:30:38.912Z,3.00
2018-06-27T13:31:38.822Z,2.90
2018-06-27T13:33:31.531Z,3.10
2018-06-27T13:34:31.418Z,3.10
2018-06-27T13:36:24.116Z,3.00
2018-06-27T13:37:24.023Z,3.10
2018-06-27T13:39:16.758Z,3.10
2018-06-27T13:40:16.636Z,3.10
2018-06-27T13:42:09.317Z,3.00
2018-06-27T13:43:09.224Z,3.80
2018-06-27T13:45:01.940Z,3.10
2018-06-27T13:46:01.826Z,3.00
2018-06-27T13:47:54.519Z,2.70
2018-06-27T13:48:54.427Z,2.70
2018-06-27T13:50:47.135Z,2.70
2018-06-27T13:51:47.027Z,2.70
2018-06-27T13:53:39.744Z,2.80
2018-06-27T13:54:39.618Z,2.90
2018-06-27T13:56:32.312Z,2.60
2018-06-27T13:57:32.219Z,2.80
2018-06-27T13:59:24.997Z,2.70
2018-06-27T14:00:24.835Z,2.60
2018-06-27T14:02:17.514Z,2.80
2018-06-27T14:03:17.420Z,2.60
2018-06-27T14:05:10.130Z,2.90
2018-06-27T14:06:10.113Z,2.60
2018-06-27T14:08:02.715Z,3.10
2018-06-27T14:09:02.614Z,3.10
2018-06-27T14:10:55.352Z,3.40
2018-06-27T14:11:55.234Z,2.80
2018-06-27T14:13:47.907Z,3.20
2018-06-27T14:14:47.807Z,2.70
2018-06-27T14:16:40.527Z,3.00
2018-06-27T14:17:40.407Z,2.70
2018-06-27T14:19:33.102Z,2.90
2018-06-27T14:20:33.008Z,2.90
2018-06-27T14:22:25.758Z,2.50
2018-06-27T14:23:25.631Z,2.80
2018-06-27T14:25:18.326Z,2.40
2018-06-27T14:26:18.212Z,2.60
2018-06-27T14:28:11.402Z,2.60
2018-06-27T14:29:11.301Z,2.90
2018-06-27T14:31:04.198Z,2.90
2018-06-27T14:32:03.919Z,2.40
2018-06-27T14:33:56.602Z,2.50
2018-06-27T14:34:56.504Z,2.90
2018-06-27T14:36:49.221Z,2.90
2018-06-27T14:37:49.112Z,2.80
2018-06-27T14:39:41.795Z,2.80
2018-06-27T14:40:41.701Z,3.00
2018-06-27T14:42:34.440Z,2.90
2018-06-27T14:43:34.308Z,2.70
2018-06-27T14:45:27.484Z,2.90
2018-06-27T14:46:27.429Z,2.60
2018-06-27T14:48:20.113Z,2.60
2018-06-27T14:49:20.039Z,2.90
2018-06-27T14:51:13.186Z,2.70
2018-06-27T14:52:13.105Z,2.70
2018-06-27T14:54:05.832Z,2.60
2018-06-27T14:55:05.699Z,2.30
2018-06-27T14:56:58.387Z,2.90
2018-06-27T14:57:58.293Z,2.40
2018-06-27T14:59:50.998Z,2.50
2018-06-27T15:00:50.889Z,2.70
2018-06-27T15:02:43.581Z,2.40
2018-06-27T15:03:43.479Z,2.60
2018-06-27T15:05:36.213Z,2.50
2018-06-27T15:06:36.089Z,2.80
2018-06-27T15:08:28.862Z,2.70
2018-06-27T15:09:28.676Z,2.60
2018-06-27T15:11:21.372Z,2.60
2018-06-27T15:12:21.273Z,2.90
2018-06-27T15:14:14.172Z,2.60
2018-06-27T15:15:13.871Z,2.80
2018-06-27T15:17:06.559Z,2.80
2018-06-27T15:18:06.462Z,2.50
2018-06-27T15:19:59.176Z,2.50
2018-06-27T15:20:59.059Z,2.70
2018-06-27T15:22:51.757Z,2.60
2018-06-27T15:23:51.698Z,2.70
2018-06-27T15:25:44.389Z,2.70
2018-06-27T15:26:44.264Z,2.40
2018-06-27T15:28:36.940Z,2.20
2018-06-27T15:29:36.847Z,2.40
2018-06-27T15:31:29.632Z,2.60
2018-06-27T15:32:29.519Z,2.50
2018-06-27T15:34:22.202Z,2.40
2018-06-27T15:35:22.167Z,2.60
2018-06-27T15:37:14.844Z,2.80
2018-06-27T15:38:14.720Z,2.40
2018-06-27T15:40:07.397Z,2.40
2018-06-27T15:41:07.300Z,2.40
2018-06-27T15:43:00.023Z,2.20
2018-06-27T15:43:59.893Z,2.50
2018-06-27T15:45:52.598Z,2.50
2018-06-27T15:46:52.504Z,2.10
2018-06-27T15:48:45.248Z,2.30
2018-06-27T15:49:45.113Z,2.40
2018-06-27T15:51:37.798Z,2.30
2018-06-27T15:52:37.700Z,2.30
2018-06-27T15:54:30.410Z,2.50
2018-06-27T15:55:30.302Z,2.60
2018-06-27T15:57:23.020Z,2.20
2018-06-27T15:58:22.896Z,3.00
2018-06-27T16:00:15.607Z,2.30
2018-06-27T16:01:15.514Z,2.30
2018-06-27T16:03:08.211Z,2.40
2018-06-27T16:04:08.109Z,2.40
2018-06-27T16:06:00.792Z,1.90
2018-06-27T16:07:00.691Z,2.10
2018-06-27T16:08:53.411Z,2.50
2018-06-27T16:09:53.298Z,2.40
2018-06-27T16:11:46.167Z,2.30
2018-06-27T16:12:45.897Z,2.60
2018-06-27T16:14:38.606Z,2.30
2018-06-27T16:15:38.498Z,2.70
2018-06-27T16:17:31.236Z,2.30
2018-06-27T16:18:31.093Z,2.20
2018-06-27T16:20:23.811Z,2.20
2018-06-27T16:21:23.688Z,2.40
2018-06-27T16:23:16.397Z,2.20
2018-06-27T16:24:16.283Z,2.30
2018-06-27T16:26:08.981Z,2.10
2018-06-27T16:27:08.894Z,2.00
2018-06-27T16:29:01.595Z,2.10
2018-06-27T16:30:01.497Z,2.00
2018-06-27T16:31:54.170Z,2.30
2018-06-27T16:32:54.077Z,2.00
2018-06-27T16:34:46.789Z,1.90
2018-06-27T16:35:46.731Z,1.90
2018-06-27T16:37:39.373Z,1.90
2018-06-27T16:38:39.279Z,2.00
2018-06-27T16:40:31.995Z,3.30
2018-06-27T16:41:31.881Z,3.00
2018-06-27T16:43:24.653Z,2.10
2018-06-27T16:44:24.479Z,1.80
2018-06-27T16:46:17.247Z,1.60
2018-06-27T16:47:17.079Z,2.00
2018-06-27T16:49:09.793Z,1.80
2018-06-27T16:50:09.683Z,2.00
2018-06-27T16:52:02.401Z,1.70
2018-06-27T16:53:02.281Z,1.80
2018-06-27T16:54:55.489Z,1.60
2018-06-27T16:55:55.389Z,1.50
2018-06-27T16:57:48.095Z,1.70
2018-06-27T16:58:47.973Z,1.50
2018-06-27T17:00:40.666Z,1.40
2018-06-27T17:01:40.576Z,1.60
2018-06-27T17:03:33.283Z,1.70
2018-06-27T17:04:33.201Z,1.60
2018-06-27T17:06:25.893Z,1.50
2018-06-27T17:07:25.763Z,1.40
2018-06-27T17:09:18.458Z,1.60
2018-06-27T17:10:18.366Z,1.80
2018-06-27T17:12:11.072Z,1.50
2018-06-27T17:13:10.955Z,1.40
2018-06-27T17:15:03.728Z,1.50
2018-06-27T17:16:03.604Z,1.70
2018-06-27T17:17:56.287Z,1.60
2018-06-27T17:18:56.206Z,1.70
2018-06-27T17:20:49.356Z,1.80
2018-06-27T17:21:49.169Z,1.70
2018-06-27T17:23:41.837Z,1.60
2018-06-27T17:24:41.723Z,1.40
2018-06-27T17:26:34.416Z,1.50
2018-06-27T17:27:34.323Z,1.40
2018-06-27T17:29:27.032Z,1.70
2018-06-27T17:30:26.917Z,1.70
2018-06-27T17:32:19.611Z,2.70
2018-06-27T17:33:19.511Z,2.10
2018-06-27T17:35:12.219Z,4.90
2018-06-27T17:36:12.105Z,4.60
2018-06-27T17:38:04.835Z,2.00
2018-06-27T17:39:04.692Z,1.80
2018-06-27T17:40:57.414Z,2.80
2018-06-27T17:41:57.289Z,2.50
2018-06-27T17:43:50.024Z,3.00
2018-06-27T17:44:50.014Z,5.20
2018-06-27T17:46:42.868Z,6.20
2018-06-27T17:47:42.564Z,6.70
2018-06-27T17:49:35.286Z,6.70
2018-06-27T17:50:35.152Z,3.50
2018-06-27T17:52:27.852Z,4.60
2018-06-27T17:53:27.751Z,2.40
2018-06-27T17:55:20.459Z,3.10
2018-06-27T17:56:20.340Z,3.80
2018-06-27T17:58:13.039Z,1.70
2018-06-27T17:59:12.941Z,2.10
2018-06-27T18:01:05.649Z,2.60
2018-06-27T18:02:05.536Z,3.10
2018-06-27T18:03:58.236Z,2.30
2018-06-27T18:04:58.133Z,2.10
2018-06-27T18:06:50.847Z,3.20
2018-06-27T18:07:50.722Z,1.70
2018-06-27T18:09:43.413Z,3.00
2018-06-27T18:10:43.312Z,2.00
2018-06-27T18:12:36.021Z,2.60
2018-06-27T18:13:35.944Z,2.00
2018-06-27T18:15:28.589Z,1.70
2018-06-27T18:16:28.492Z,1.50
2018-06-27T18:18:21.212Z,1.70
2018-06-27T18:19:21.095Z,1.70
2018-06-27T18:21:13.801Z,2.20
2018-06-27T18:22:13.673Z,1.80
2018-06-27T18:24:06.370Z,3.00
2018-06-27T18:25:06.271Z,2.50
2018-06-27T18:26:58.991Z,2.20
2018-06-27T18:27:58.949Z,1.60
2018-06-27T18:29:51.619Z,2.00
2018-06-27T18:30:51.465Z,1.60
2018-06-27T18:32:44.175Z,1.90
2018-06-27T18:33:44.061Z,2.00
2018-06-27T18:35:36.897Z,3.10
2018-06-27T18:36:36.796Z,2.90
2018-06-27T18:38:29.501Z,2.40
2018-06-27T18:39:29.388Z,3.00
2018-06-27T18:41:22.106Z,2.60
2018-06-27T18:42:21.980Z,2.40
2018-06-27T18:44:14.692Z,2.70
2018-06-27T18:45:14.578Z,2.10
2018-06-27T18:47:07.266Z,2.90
2018-06-27T18:48:07.162Z,2.70
2018-06-27T18:49:59.874Z,2.30
2018-06-27T18:50:59.752Z,3.00
2018-06-27T18:52:52.471Z,2.30
2018-06-27T18:53:52.361Z,2.20
2018-06-27T18:55:45.041Z,2.10
2018-06-27T18:56:44.939Z,2.10
2018-06-27T18:58:37.665Z,2.20
2018-06-27T18:59:37.533Z,1.90
2018-06-27T19:01:30.237Z,1.90
2018-06-27T19:02:30.130Z,2.10
2018-06-27T19:04:22.835Z,2.00
2018-06-27T19:05:22.716Z,1.80
2018-06-27T19:07:15.402Z,1.90
2018-06-27T19:08:15.327Z,2.00
2018-06-27T19:10:08.013Z,2.60
2018-06-27T19:11:07.897Z,2.40
2018-06-27T19:13:00.578Z,2.10
2018-06-27T19:14:00.481Z,2.00
2018-06-27T19:15:53.192Z,2.00
2018-06-27T19:16:53.070Z,2.10
2018-06-27T19:18:45.762Z,2.00
2018-06-27T19:19:45.669Z,2.00
2018-06-27T19:21:38.376Z,1.80
2018-06-27T19:22:38.256Z,1.90
2018-06-27T19:24:30.955Z,2.10
2018-06-27T19:25:30.842Z,1.70
2018-06-27T19:27:23.524Z,2.00
2018-06-27T19:28:23.427Z,2.10
2018-06-27T19:30:16.145Z,2.20
2018-06-27T19:31:16.020Z,2.60
2018-06-27T19:33:08.707Z,2.30
2018-06-27T19:34:08.600Z,1.90
2018-06-27T19:36:01.314Z,1.90
2018-06-27T19:37:01.186Z,2.20
2018-06-27T19:38:53.876Z,1.90
2018-06-27T19:39:53.774Z,1.60
2018-06-27T19:41:46.480Z,2.00
2018-06-27T19:42:46.364Z,2.10
2018-06-27T19:44:39.050Z,1.90
2018-06-27T19:45:38.983Z,2.10
2018-06-27T19:47:31.663Z,2.00
2018-06-27T19:48:31.541Z,1.90
2018-06-27T19:50:24.714Z,1.70
2018-06-27T19:51:24.688Z,1.90
2018-06-27T19:53:17.328Z,2.20
2018-06-27T19:54:17.207Z,1.90
2018-06-27T19:56:09.938Z,2.00
2018-06-27T19:57:09.799Z,2.00
2018-06-27T19:59:02.492Z,2.30
2018-06-27T20:00:02.439Z,2.20
2018-06-27T20:01:55.094Z,2.40
2018-06-27T20:02:54.976Z,2.70
2018-06-27T20:04:47.659Z,2.30
2018-06-27T20:05:47.557Z,2.40
2018-06-27T20:07:41.316Z,2.20
2018-06-27T20:08:41.144Z,2.40
2018-06-27T20:10:33.917Z,2.30
2018-06-27T20:11:33.727Z,2.50
2018-06-27T20:13:26.431Z,2.20
2018-06-27T20:14:26.408Z,2.10
2018-06-27T20:16:19.004Z,2.30
2018-06-27T20:17:18.898Z,2.60
2018-06-27T20:19:11.609Z,2.20
2018-06-27T20:20:11.491Z,2.30
2018-06-27T20:22:04.244Z,2.30
2018-06-27T20:23:04.079Z,2.50
2018-06-27T20:24:56.783Z,2.70
2018-06-27T20:25:56.670Z,2.80
2018-06-27T20:27:49.353Z,2.80
2018-06-27T20:28:49.248Z,2.70
2018-06-27T20:30:41.954Z,3.50
2018-06-27T20:31:41.956Z,3.50
2018-06-27T20:33:34.550Z,3.30
2018-06-27T20:34:34.463Z,3.10
2018-06-27T20:36:27.153Z,3.40
2018-06-27T20:37:27.030Z,3.60
2018-06-27T20:39:19.739Z,3.30
2018-06-27T20:40:19.611Z,2.70
2018-06-27T20:42:12.311Z,3.10
2018-06-27T20:43:12.217Z,2.70
2018-06-27T20:45:04.902Z,2.80
2018-06-27T20:46:04.786Z,2.60
2018-06-27T20:47:57.627Z,2.90
2018-06-27T20:48:57.372Z,2.50
2018-06-27T20:50:50.593Z,2.50
2018-06-27T20:51:50.474Z,2.50
2018-06-27T20:53:43.169Z,2.80
2018-06-27T20:54:43.067Z,3.00
2018-06-27T20:56:35.775Z,2.60
2018-06-27T20:57:35.651Z,2.70
2018-06-27T20:59:28.335Z,2.70
2018-06-27T21:00:28.235Z,2.70
2018-06-27T21:02:20.937Z,2.60
2018-06-27T21:03:20.818Z,2.40
2018-06-27T21:05:13.497Z,2.40
2018-06-27T21:06:13.398Z,2.70
2018-06-27T21:08:06.298Z,2.70
2018-06-27T21:09:05.993Z,2.80
2018-06-27T21:10:58.676Z,2.90
2018-06-27T21:11:58.582Z,2.50
2018-06-27T21:13:51.273Z,2.50
2018-06-27T21:14:51.149Z,2.70
2018-06-27T21:16:43.861Z,2.60
2018-06-27T21:17:43.740Z,2.50
2018-06-27T21:19:36.439Z,2.40
2018-06-27T21:20:36.317Z,2.50
2018-06-27T21:22:29.044Z,2.60
2018-06-27T21:23:28.898Z,2.50
2018-06-27T21:25:21.582Z,2.50
2018-06-27T21:26:21.484Z,2.60
2018-06-27T21:28:14.180Z,3.00
2018-06-27T21:29:14.058Z,2.70
2018-06-27T21:31:06.743Z,4.40
2018-06-27T21:32:06.644Z,6.00
2018-06-27T21:33:59.355Z,7.00
2018-06-27T21:34:59.230Z,6.80
2018-06-27T21:36:51.922Z,6.30
2018-06-27T21:37:51.819Z,5.70
2018-06-27T21:39:44.525Z,5.70
2018-06-27T21:40:44.407Z,6.10
2018-06-27T21:42:37.093Z,5.90
2018-06-27T21:43:36.989Z,5.70
2018-06-27T21:45:29.696Z,5.20
2018-06-27T21:46:29.566Z,4.80
2018-06-27T21:48:22.271Z,4.70
2018-06-27T21:49:22.146Z,4.40
2018-06-27T21:51:14.829Z,4.10
2018-06-27T21:52:14.728Z,4.10
2018-06-27T21:54:07.433Z,3.90
2018-06-27T21:55:07.312Z,4.20
2018-06-27T21:56:59.994Z,4.00
2018-06-27T21:57:59.888Z,3.80
2018-06-27T21:59:52.596Z,3.70
